Time;durP1;ratioP1;P1;durP2;ratioP2;P2;SDS_P1;SDS_P2;PMS_P1;PMS_P2;Temp;Humidity;BMP_temperature;BMP_pressure;BME280_temperature;BME280_humidity;BME280_pressure;Samples;Min_cycle;Max_cycle;Signal;HPM_P1;HPM_P2
2021/06/17 00:01:09;;;;;;;10.07;6.27;;;21.50;99.90;;;;;;5065496;28;20386;-50
2021/06/17 00:03:35;;;;;;;9.80;6.45;;;21.50;99.90;;;;;;5061670;28;20405;-49
2021/06/17 00:06:00;;;;;;;10.70;7.07;;;21.40;99.90;;;;;;5066575;28;20388;-49
2021/06/17 00:08:26;;;;;;;10.93;6.53;;;21.40;99.90;;;;;;5055741;28;20382;-49
2021/06/17 00:10:51;;;;;;;9.50;6.20;;;21.30;99.90;;;;;;5054861;28;20378;-49
2021/06/17 00:13:20;;;;;;;11.50;6.60;;;21.20;99.90;;;;;;5064960;28;20431;-49
2021/06/17 00:15:48;;;;;;;9.88;6.50;;;21.00;99.90;;;;;;5054247;28;20492;-50
2021/06/17 00:18:15;;;;;;;10.50;7.10;;;20.80;99.90;;;;;;5051347;28;20381;-50
2021/06/17 00:20:42;;;;;;;11.82;7.53;;;20.60;99.90;;;;;;5049905;28;20565;-49
2021/06/17 00:23:08;;;;;;;12.52;7.90;;;20.50;99.90;;;;;;5051908;28;20933;-50
2021/06/17 00:25:34;;;;;;;12.45;7.45;;;20.50;99.90;;;;;;5051234;28;20448;-50
2021/06/17 00:28:00;;;;;;;11.07;7.23;;;20.50;99.90;;;;;;5051444;28;20382;-49
2021/06/17 00:30:26;;;;;;;13.57;7.45;;;20.50;99.90;;;;;;5050736;28;20377;-50
2021/06/17 00:32:52;;;;;;;11.88;7.95;;;20.50;99.90;;;;;;5051569;28;20494;-49
2021/06/17 00:35:18;;;;;;;11.03;7.53;;;20.60;99.90;;;;;;5051240;28;20488;-50
2021/06/17 00:37:44;;;;;;;12.95;7.60;;;20.70;99.90;;;;;;5050846;28;20812;-50
2021/06/17 00:40:12;;;;;;;12.50;7.87;;;20.80;99.90;;;;;;5050494;28;20373;-50
2021/06/17 00:42:40;;;;;;;10.98;7.70;;;20.80;99.90;;;;;;5050122;28;20398;-49
2021/06/17 00:45:10;;;;;;;11.60;7.85;;;20.80;99.90;;;;;;5051282;28;20459;-50
2021/06/17 00:47:35;;;;;;;13.13;7.70;;;20.80;99.90;;;;;;5050530;28;20381;-49
2021/06/17 00:50:04;;;;;;;11.10;7.40;;;21.00;99.90;;;;;;5051219;28;20384;-49
2021/06/17 00:52:29;;;;;;;10.80;7.80;;;21.00;99.90;;;;;;5050358;28;20492;-50
2021/06/17 00:54:58;;;;;;;11.97;7.80;;;21.00;99.90;;;;;;5051535;28;20465;-49
2021/06/17 00:57:24;;;;;;;10.40;7.45;;;21.00;99.90;;;;;;5050747;28;20851;-53
2021/06/17 00:59:50;;;;;;;10.30;7.78;;;22.10;99.90;;;;;;5050970;28;20451;-50
2021/06/17 01:02:16;;;;;;;12.90;8.70;;;20.90;99.90;;;;;;5051194;28;20419;-49
2021/06/17 01:04:42;;;;;;;11.63;7.93;;;20.80;99.90;;;;;;5050147;28;20516;-50
2021/06/17 01:07:09;;;;;;;14.05;8.65;;;20.60;99.90;;;;;;5051142;28;20484;-49
2021/06/17 01:09:52;;;;;;;14.27;8.60;;;20.60;99.90;;;;;;5050354;28;20855;-51
2021/06/17 01:12:38;;;;;;;15.57;9.52;;;20.60;99.90;;;;;;5051103;28;20500;-49
2021/06/17 01:15:07;;;;;;;12.43;8.30;;;20.50;99.90;;;;;;5029598;28;20424;-49
2021/06/17 01:17:39;;;;;;;15.25;9.30;;;20.30;99.90;;;;;;5050036;28;20421;-49
2021/06/17 01:20:17;;;;;;;14.55;9.57;;;20.30;99.90;;;;;;5050860;28;20370;-49
2021/06/17 01:22:51;;;;;;;16.90;8.82;;;20.20;99.90;;;;;;5049731;28;20628;-50
2021/06/17 01:25:41;;;;;;;16.48;9.40;;;20.10;99.90;;;;;;5049578;28;20397;-49
2021/06/17 01:28:16;;;;;;;14.40;9.50;;;19.90;99.90;;;;;;5050392;28;20381;-49
2021/06/17 01:30:50;;;;;;;14.07;8.52;;;19.80;99.90;;;;;;5049763;28;20386;-49
2021/06/17 01:33:18;;;;;;;13.02;9.07;;;19.60;99.90;;;;;;5050469;28;20448;-52
2021/06/17 01:35:49;;;;;;;11.32;8.32;;;19.50;99.90;;;;;;5049769;28;20382;-52
2021/06/17 01:38:19;;;;;;;11.73;8.05;;;19.50;99.90;;;;;;5050391;28;20468;-50
2021/06/17 01:40:46;;;;;;;12.93;8.70;;;19.60;99.90;;;;;;5049360;28;21009;-50
2021/06/17 01:43:14;;;;;;;12.43;8.40;;;19.70;99.90;;;;;;5049838;28;20395;-50
2021/06/17 01:45:39;;;;;;;11.88;7.93;;;19.80;99.90;;;;;;5049533;28;20383;-50
2021/06/17 01:48:07;;;;;;;14.35;7.68;;;19.90;99.90;;;;;;5050312;28;20389;-50
2021/06/17 01:50:34;;;;;;;11.77;8.30;;;20.00;99.90;;;;;;5049452;28;20393;-50
2021/06/17 01:53:00;;;;;;;13.48;8.35;;;20.00;99.90;;;;;;5048684;28;20418;-50
2021/06/17 01:55:36;;;;;;;13.60;9.20;;;20.00;99.90;;;;;;5049696;28;20388;-53
2021/06/17 01:58:05;;;;;;;12.30;8.30;;;19.80;99.90;;;;;;5050322;28;20381;-50
2021/06/17 02:00:32;;;;;;;13.43;8.30;;;19.70;99.90;;;;;;5049272;28;20370;-50
2021/06/17 02:03:00;;;;;;;12.48;8.68;;;19.60;99.90;;;;;;5050343;28;20397;-50
2021/06/17 02:05:27;;;;;;;10.43;8.00;;;19.60;99.90;;;;;;5049208;28;20421;-53
2021/06/17 02:07:53;;;;;;;14.43;8.20;;;19.70;99.90;;;;;;5049915;28;20847;-50
2021/06/17 02:10:20;;;;;;;12.15;8.30;;;19.70;99.90;;;;;;5049736;28;20929;-51
2021/06/17 02:12:47;;;;;;;12.00;8.50;;;19.80;99.90;;;;;;5048929;28;20453;-50
2021/06/17 02:15:14;;;;;;;16.38;8.23;;;19.80;99.90;;;;;;5049834;28;20389;-50
2021/06/17 02:17:44;;;;;;;14.40;8.52;;;19.80;99.90;;;;;;5048961;28;20743;-51
2021/06/17 02:20:10;;;;;;;13.15;8.43;;;19.80;99.90;;;;;;5049906;28;20420;-51
2021/06/17 02:22:41;;;;;;;12.97;8.53;;;19.90;99.90;;;;;;5049024;28;20393;-52
2021/06/17 02:25:09;;;;;;;12.93;8.80;;;19.90;99.90;;;;;;5049832;28;20443;-50
2021/06/17 02:27:37;;;;;;;14.38;8.07;;;19.90;99.90;;;;;;5048799;28;20386;-50
2021/06/17 02:30:10;;;;;;;13.77;8.80;;;19.90;99.90;;;;;;5048713;28;20394;-50
2021/06/17 02:32:44;;;;;;;12.98;8.80;;;19.70;99.90;;;;;;5048926;28;20906;-51
2021/06/17 02:35:11;;;;;;;14.40;8.32;;;19.60;99.90;;;;;;5049314;28;20409;-50
2021/06/17 02:37:39;;;;;;;13.43;8.48;;;19.40;99.90;;;;;;5048771;28;20385;-50
2021/06/17 02:40:06;;;;;;;12.68;8.50;;;19.20;99.90;;;;;;5049724;28;20412;-50
2021/06/17 02:42:34;;;;;;;12.50;8.17;;;19.00;99.90;;;;;;5051490;28;20483;-51
2021/06/17 02:45:01;;;;;;;12.55;8.23;;;18.90;99.90;;;;;;5053959;28;20847;-51
2021/06/17 02:47:26;;;;;;;12.90;8.50;;;18.90;99.90;;;;;;5053088;28;20919;-56
2021/06/17 02:49:52;;;;;;;15.32;9.48;;;19.00;99.90;;;;;;5053256;28;20515;-51
2021/06/17 02:52:19;;;;;;;15.13;8.80;;;19.00;99.90;;;;;;5053480;28;20761;-52
2021/06/17 02:54:45;;;;;;;15.75;9.85;;;18.60;99.90;;;;;;5051532;28;20988;-51
2021/06/17 02:57:28;;;;;;;14.55;9.85;;;19.00;99.90;;;;;;5053727;28;20378;-50
2021/06/17 03:00:03;;;;;;;13.30;9.00;;;19.00;99.90;;;;;;5053477;28;20378;-50
2021/06/17 03:02:36;;;;;;;15.85;10.20;;;18.90;99.90;;;;;;5052555;28;20389;-53
2021/06/17 03:05:12;;;;;;;15.40;9.32;;;18.80;99.90;;;;;;5052720;28;20527;-51
2021/06/17 03:07:44;;;;;;;13.27;8.83;;;18.80;99.90;;;;;;5051718;28;20389;-51
2021/06/17 03:10:11;;;;;;;13.70;9.55;;;18.80;99.90;;;;;;5054029;28;20407;-51
2021/06/17 03:12:40;;;;;;;15.68;9.25;;;18.90;99.90;;;;;;5052600;28;20413;-50
2021/06/17 03:15:07;;;;;;;12.75;9.30;;;18.90;99.90;;;;;;5052908;28;20385;-54
2021/06/17 03:17:34;;;;;;;14.10;9.20;;;19.00;99.90;;;;;;5051955;28;20492;-51
2021/06/17 03:20:05;;;;;;;12.98;10.30;;;18.90;99.90;;;;;;5053091;28;20382;-51
2021/06/17 03:22:32;;;;;;;13.52;9.57;;;18.70;99.90;;;;;;5052450;28;20422;-52
2021/06/17 03:25:03;;;;;;;14.25;9.00;;;18.60;99.90;;;;;;5052943;28;20515;-51
2021/06/17 03:27:31;;;;;;;14.50;8.80;;;18.60;99.90;;;;;;5052360;28;20378;-54
2021/06/17 03:29:57;;;;;;;12.63;8.30;;;18.60;99.90;;;;;;5052832;28;20381;-52
2021/06/17 03:32:26;;;;;;;11.93;8.65;;;18.70;99.90;;;;;;5052335;28;20431;-51
2021/06/17 03:34:53;;;;;;;14.68;8.40;;;18.90;99.90;;;;;;5052410;28;20401;-51
2021/06/17 03:37:20;;;;;;;12.75;8.00;;;18.90;99.90;;;;;;5051561;28;20417;-51
2021/06/17 03:39:47;;;;;;;16.65;8.60;;;18.90;99.90;;;;;;5051816;28;20377;-52
2021/06/17 03:42:15;;;;;;;13.95;7.85;;;18.80;99.90;;;;;;5053131;28;20397;-51
2021/06/17 03:44:42;;;;;;;11.40;7.85;;;18.70;99.90;;;;;;5051758;28;20377;-51
2021/06/17 03:47:11;;;;;;;13.77;8.10;;;18.70;99.90;;;;;;5052577;28;20393;-51
2021/06/17 03:49:37;;;;;;;10.85;7.60;;;18.80;99.90;;;;;;5051610;28;20728;-50
2021/06/17 03:52:04;;;;;;;12.20;7.33;;;19.00;99.90;;;;;;5052387;28;20413;-51
2021/06/17 03:54:31;;;;;;;12.87;7.90;;;19.10;99.90;;;;;;5050344;28;20427;-54
2021/06/17 03:56:59;;;;;;;11.75;7.78;;;19.30;99.90;;;;;;5052716;28;20386;-51
2021/06/17 03:59:29;;;;;;;12.70;7.90;;;19.40;99.90;;;;;;5052135;28;20928;-51
2021/06/17 04:01:55;;;;;;;11.90;7.63;;;19.50;99.90;;;;;;5051683;28;20393;-51
2021/06/17 04:04:21;;;;;;;11.73;7.90;;;19.60;99.90;;;;;;5051986;28;20405;-50
2021/06/17 04:06:52;;;;;;;13.55;8.30;;;19.70;99.90;;;;;;5051217;28;20639;-50
2021/06/17 04:09:27;;;;;;;12.85;7.97;;;19.80;99.90;;;;;;5051933;28;20411;-50
2021/06/17 04:12:02;;;;;;;12.07;7.90;;;19.90;99.90;;;;;;5050267;28;20413;-50
2021/06/17 04:14:30;;;;;;;13.15;8.10;;;19.90;99.90;;;;;;5051462;28;20728;-54
2021/06/17 04:16:56;;;;;;;13.20;9.05;;;19.90;99.90;;;;;;5051866;28;20377;-50
2021/06/17 04:19:25;;;;;;;11.35;8.10;;;19.90;99.90;;;;;;5052031;28;20861;-51
2021/06/17 04:21:54;;;;;;;14.52;8.82;;;19.90;99.90;;;;;;5062261;28;20904;-51
2021/06/17 04:24:22;;;;;;;12.63;8.20;;;19.90;99.90;;;;;;5059855;28;20448;-51
2021/06/17 04:26:51;;;;;;;12.70;8.90;;;20.00;99.90;;;;;;5071029;28;20380;-50
2021/06/17 04:29:17;;;;;;;13.98;9.10;;;20.00;99.90;;;;;;5056945;28;20386;-50
2021/06/17 04:31:44;;;;;;;14.05;8.60;;;20.10;99.90;;;;;;5050943;28;20417;-51
2021/06/17 04:34:11;;;;;;;13.30;8.48;;;20.10;99.90;;;;;;5051377;28;20473;-51
2021/06/17 04:36:38;;;;;;;13.57;8.13;;;20.10;99.90;;;;;;5049501;28;20393;-51
2021/06/17 04:39:04;;;;;;;13.90;8.80;;;20.20;99.90;;;;;;5051693;28;20408;-51
2021/06/17 04:41:30;;;;;;;13.82;8.68;;;20.20;99.90;;;;;;5050581;28;20435;-54
2021/06/17 04:43:56;;;;;;;13.10;8.43;;;20.30;99.90;;;;;;5050891;28;20766;-51
2021/06/17 04:46:23;;;;;;;14.38;8.45;;;20.40;99.90;;;;;;5051299;28;20378;-51
2021/06/17 04:48:51;;;;;;;14.02;8.88;;;20.60;99.90;;;;;;5046421;28;21108;-49
2021/06/17 04:51:17;;;;;;;12.20;9.07;;;20.80;99.90;;;;;;5051279;28;20389;-49
2021/06/17 04:53:43;;;;;;;14.90;9.20;;;21.00;99.90;;;;;;5050203;28;20409;-48
2021/06/17 04:56:09;;;;;;;17.25;9.52;;;21.30;99.90;;;;;;5052231;28;20396;-48
2021/06/17 04:58:36;;;;;;;13.20;8.77;;;21.90;99.90;;;;;;5057199;28;20388;-50
2021/06/17 05:01:05;;;;;;;18.45;8.45;;;23.20;99.90;;;;;;5064139;28;20878;-50
2021/06/17 05:03:32;;;;;;;13.20;8.60;;;24.40;99.90;;;;;;5049831;28;20389;-53
2021/06/17 05:05:59;;;;;;;13.43;8.30;;;25.60;99.90;;;;;;5045203;28;20546;-49
2021/06/17 05:10:58;;;;;;;13.80;8.40;;;27.10;99.90;;;;;;5049219;28;20374;-47
2021/06/17 05:13:31;;;;;;;15.85;8.18;;;27.50;99.90;;;;;;5050213;28;20413;-47
2021/06/17 05:16:00;;;;;;;14.90;8.43;;;27.90;99.90;;;;;;5044740;28;20398;-49
2021/06/17 05:18:27;;;;;;;16.73;8.70;;;28.40;99.90;;;;;;5048977;28;20381;-47
2021/06/17 05:20:54;;;;;;;17.50;9.40;;;28.80;99.20;;;;;;5050013;28;20447;-47
2021/06/17 05:23:21;;;;;;;11.90;8.10;;;29.00;98.60;;;;;;5049508;28;20902;-52
2021/06/17 05:25:49;;;;;;;12.20;7.40;;;29.60;96.20;;;;;;5049456;28;20388;-50
2021/06/17 05:28:17;;;;;;;13.43;9.00;;;30.00;94.90;;;;;;5050467;28;20420;-50
2021/06/17 05:30:44;;;;;;;11.50;8.50;;;30.40;93.20;;;;;;5049653;28;20413;-50
2021/06/17 05:33:10;;;;;;;14.70;8.87;;;29.80;94.00;;;;;;5050084;28;20907;-50
2021/06/17 05:35:37;;;;;;;15.70;9.00;;;30.10;92.80;;;;;;5049230;28;20409;-50
2021/06/17 05:38:03;;;;;;;13.40;8.60;;;30.00;92.30;;;;;;5050044;28;20385;-50
2021/06/17 05:40:29;;;;;;;12.40;8.27;;;30.80;90.80;;;;;;5048624;28;20377;-51
2021/06/17 05:42:54;;;;;;;11.68;7.60;;;31.20;88.80;;;;;;5049962;28;20381;-48
2021/06/17 05:45:20;;;;;;;12.60;8.43;;;31.60;87.40;;;;;;5050306;28;20392;-48
2021/06/17 05:47:46;;;;;;;14.00;8.00;;;31.90;84.40;;;;;;5049164;28;20523;-48
2021/06/17 05:50:12;;;;;;;16.10;8.48;;;32.20;81.80;;;;;;5049442;28;20460;-49
2021/06/17 05:52:37;;;;;;;14.23;7.30;;;32.50;78.70;;;;;;5042917;28;20480;-48
2021/06/17 05:55:04;;;;;;;10.48;6.95;;;32.70;77.00;;;;;;5049570;28;20916;-48
2021/06/17 05:57:29;;;;;;;10.40;6.40;;;32.10;76.90;;;;;;5048817;28;20462;-51
2021/06/17 05:59:55;;;;;;;11.63;6.20;;;31.90;76.70;;;;;;5048878;28;20384;-48
2021/06/17 06:02:24;;;;;;;10.37;6.50;;;32.40;75.00;;;;;;5049603;28;20732;-48
2021/06/17 06:04:53;;;;;;;11.98;6.40;;;32.80;74.00;;;;;;5058390;28;20409;-49
2021/06/17 06:07:20;;;;;;;13.30;6.70;;;33.50;70.90;;;;;;5047859;28;20458;-50
2021/06/17 06:09:46;;;;;;;12.63;6.57;;;33.90;68.20;;;;;;5048333;28;20901;-50
2021/06/17 06:12:13;;;;;;;10.73;6.28;;;33.40;68.30;;;;;;5049397;28;20401;-49
2021/06/17 06:14:39;;;;;;;10.52;6.30;;;34.10;65.90;;;;;;5048624;28;20396;-50
2021/06/17 06:17:05;;;;;;;9.77;5.90;;;34.70;62.70;;;;;;5047935;28;20459;-49
2021/06/17 06:19:34;;;;;;;11.90;5.60;;;34.30;63.80;;;;;;5047476;28;20786;-53
2021/06/17 06:22:00;;;;;;;8.57;5.50;;;34.50;61.70;;;;;;5049005;28;20411;-50
2021/06/17 06:24:25;;;;;;;9.80;5.40;;;34.70;61.60;;;;;;5049100;28;20449;-50
2021/06/17 06:26:56;;;;;;;9.30;6.00;;;35.10;59.50;;;;;;5048111;28;21252;-50
2021/06/17 06:29:22;;;;;;;10.10;5.32;;;35.10;59.30;;;;;;5049047;28;20382;-49
2021/06/17 06:31:48;;;;;;;12.07;5.70;;;34.80;59.10;;;;;;5046538;28;20965;-50
2021/06/17 06:34:13;;;;;;;10.37;5.30;;;34.80;59.10;;;;;;5048619;28;20532;-49
2021/06/17 06:36:39;;;;;;;9.50;5.60;;;35.50;59.00;;;;;;5048196;28;20437;-49
2021/06/17 06:39:05;;;;;;;10.65;5.90;;;35.80;58.10;;;;;;5048815;28;20851;-50
2021/06/17 06:41:30;;;;;;;9.45;5.70;;;36.10;56.70;;;;;;5048433;28;20791;-54
2021/06/17 06:43:56;;;;;;;11.37;6.00;;;35.80;57.10;;;;;;5048783;28;20859;-50
2021/06/17 06:46:21;;;;;;;11.00;6.10;;;35.70;57.00;;;;;;5048390;28;20393;-51
2021/06/17 06:48:47;;;;;;;10.50;6.15;;;35.60;56.00;;;;;;5048528;28;20728;-52
2021/06/17 06:51:13;;;;;;;11.73;6.10;;;35.70;55.60;;;;;;5047512;28;20393;-50
2021/06/17 06:53:38;;;;;;;11.33;5.63;;;36.10;55.50;;;;;;5047792;28;20420;-50
2021/06/17 06:56:04;;;;;;;11.70;6.40;;;36.70;54.60;;;;;;5048812;28;20467;-51
2021/06/17 06:58:30;;;;;;;12.50;7.05;;;36.60;53.70;;;;;;5048356;28;20382;-52
2021/06/17 07:00:56;;;;;;;10.30;5.90;;;37.00;53.20;;;;;;5048485;28;20377;-51
2021/06/17 07:03:22;;;;;;;12.47;5.90;;;37.00;54.00;;;;;;5047864;28;20411;-50
2021/06/17 07:05:47;;;;;;;11.50;7.55;;;37.10;51.80;;;;;;5048334;28;20440;-50
2021/06/17 07:08:14;;;;;;;9.47;6.07;;;37.40;51.40;;;;;;5048713;28;20393;-50
2021/06/17 07:10:43;;;;;;;16.20;7.70;;;37.80;51.40;;;;;;5051079;28;20399;-50
2021/06/17 07:13:09;;;;;;;10.45;6.57;;;38.00;51.70;;;;;;5061408;28;20895;-50
2021/06/17 07:15:34;;;;;;;11.63;6.38;;;38.00;51.20;;;;;;5060308;28;20419;-51
2021/06/17 07:18:00;;;;;;;13.98;6.22;;;38.50;50.10;;;;;;5068886;28;20459;-50
2021/06/17 07:20:26;;;;;;;11.00;6.30;;;38.60;48.90;;;;;;5067393;28;20738;-50
2021/06/17 07:22:55;;;;;;;11.70;6.75;;;39.70;47.60;;;;;;5063352;28;20384;-52
2021/06/17 07:25:22;;;;;;;10.80;6.18;;;40.60;46.60;;;;;;5054169;28;20421;-51
2021/06/17 07:27:48;;;;;;;10.07;5.93;;;41.00;45.80;;;;;;5066539;28;20592;-51
2021/06/17 07:30:14;;;;;;;11.77;5.78;;;40.60;44.90;;;;;;5053438;28;20709;-50
2021/06/17 07:32:41;;;;;;;11.30;5.25;;;40.10;46.00;;;;;;5051150;28;20413;-52
2021/06/17 07:35:07;;;;;;;10.48;6.05;;;40.40;44.20;;;;;;5050057;28;20443;-51
2021/06/17 07:37:33;;;;;;;11.85;5.50;;;40.40;44.90;;;;;;5051265;28;20381;-54
2021/06/17 07:39:58;;;;;;;11.60;7.33;;;40.10;44.90;;;;;;5050619;28;20386;-51
2021/06/17 07:42:25;;;;;;;10.77;5.70;;;41.10;43.60;;;;;;5052176;28;20556;-51
2021/06/17 07:44:51;;;;;;;9.50;5.40;;;41.60;43.00;;;;;;5051040;28;20648;-51
2021/06/17 07:47:18;;;;;;;8.52;5.40;;;40.80;43.90;;;;;;5051503;28;20381;-51
2021/06/17 07:49:43;;;;;;;12.32;7.35;;;40.00;43.80;;;;;;5051388;28;20419;-51
2021/06/17 07:52:09;;;;;;;10.90;6.70;;;41.00;43.60;;;;;;5051817;28;20417;-51
2021/06/17 07:54:35;;;;;;;10.07;5.70;;;42.50;42.20;;;;;;5050613;28;21062;-51
2021/06/17 07:57:01;;;;;;;11.55;5.38;;;41.80;40.60;;;;;;5051854;28;20396;-51
2021/06/17 07:59:27;;;;;;;8.23;5.10;;;40.60;41.70;;;;;;5051839;28;20817;-51
2021/06/17 08:01:53;;;;;;;8.30;5.27;;;40.10;43.50;;;;;;5050995;28;20412;-50
2021/06/17 08:04:19;;;;;;;10.55;5.30;;;40.50;43.90;;;;;;5050774;28;20646;-50
2021/06/17 08:06:45;;;;;;;9.80;5.70;;;40.60;43.10;;;;;;5050999;28;20378;-51
2021/06/17 08:09:13;;;;;;;12.75;9.40;;;41.10;43.10;;;;;;5051278;28;20757;-51
2021/06/17 08:11:42;;;;;;;11.68;5.95;;;41.40;42.10;;;;;;5050278;28;20378;-51
2021/06/17 08:14:07;;;;;;;10.10;5.70;;;41.60;42.50;;;;;;5058182;28;20869;-51
2021/06/17 08:16:33;;;;;;;11.10;5.20;;;42.00;40.60;;;;;;5061202;28;20383;-54
2021/06/17 08:18:59;;;;;;;9.27;5.07;;;42.70;40.20;;;;;;5051255;28;20401;-51
2021/06/17 08:21:24;;;;;;;11.57;5.43;;;43.00;39.30;;;;;;5050971;28;20373;-51
2021/06/17 08:23:50;;;;;;;9.50;5.40;;;42.80;39.70;;;;;;5050435;28;20386;-51
2021/06/17 08:26:16;;;;;;;9.80;5.40;;;42.60;39.30;;;;;;5050689;28;20381;-49
2021/06/17 08:28:41;;;;;;;10.02;5.30;;;42.80;38.50;;;;;;5050155;28;20393;-49
2021/06/17 08:31:10;;;;;;;9.37;5.20;;;42.80;38.90;;;;;;5051160;28;20374;-49
2021/06/17 08:33:37;;;;;;;8.57;5.22;;;42.60;38.70;;;;;;5049898;28;20448;-49
2021/06/17 08:36:05;;;;;;;12.15;8.30;;;43.40;38.40;;;;;;5050504;28;20397;-50
2021/06/17 08:38:30;;;;;;;15.13;11.27;;;43.80;37.90;;;;;;5057951;28;20396;-53
2021/06/17 08:40:56;;;;;;;26.20;21.37;;;43.00;38.20;;;;;;5053461;28;20839;-50
2021/06/17 08:43:22;;;;;;;10.40;5.57;;;42.50;39.40;;;;;;5050814;28;20389;-50
2021/06/17 08:45:48;;;;;;;9.38;4.90;;;42.80;38.50;;;;;;5049699;28;20871;-51
2021/06/17 08:48:15;;;;;;;10.23;7.10;;;42.90;38.40;;;;;;5050816;28;20389;-50
2021/06/17 08:50:41;;;;;;;9.70;6.28;;;43.10;37.30;;;;;;5048154;28;20389;-50
2021/06/17 08:53:07;;;;;;;12.40;5.60;;;43.70;36.40;;;;;;5050565;28;20500;-50
2021/06/17 08:55:34;;;;;;;9.95;5.60;;;44.90;35.50;;;;;;5049727;28;20465;-54
2021/06/17 08:58:00;;;;;;;10.20;5.50;;;44.50;35.40;;;;;;5050722;28;20374;-49
2021/06/17 09:00:38;;;;;;;9.07;5.57;;;44.00;36.00;;;;;;5050244;28;20384;-50
2021/06/17 09:03:07;;;;;;;21.70;19.10;;;44.00;35.30;;;;;;5050414;28;20385;-50
2021/06/17 09:05:37;;;;;;;8.13;5.83;;;44.30;36.20;;;;;;5049447;28;20421;-54
2021/06/17 09:08:04;;;;;;;9.10;5.75;;;43.90;35.60;;;;;;5050450;28;20382;-50
2021/06/17 09:10:30;;;;;;;9.48;5.70;;;43.60;36.30;;;;;;5050038;28;20381;-50
2021/06/17 09:12:58;;;;;;;9.83;5.37;;;43.60;36.20;;;;;;5049544;28;20416;-50
2021/06/17 09:15:29;;;;;;;8.40;4.90;;;43.40;36.10;;;;;;5050125;28;20386;-51
2021/06/17 09:18:16;;;;;;;10.73;5.85;;;41.90;37.30;;;;;;5051250;28;20398;-50
2021/06/17 09:20:51;;;;;;;13.00;11.80;;;41.00;39.50;;;;;;5052558;28;20420;-50
2021/06/17 09:23:26;;;;;;;13.68;10.00;;;40.50;40.20;;;;;;5041867;28;20395;-51
2021/06/17 09:26:00;;;;;;;12.40;5.73;;;39.40;41.70;;;;;;5068063;28;20379;-50
2021/06/17 09:28:43;;;;;;;8.77;7.35;;;38.90;42.60;;;;;;5070133;28;20467;-51
2021/06/17 09:31:17;;;;;;;7.90;4.78;;;38.70;41.20;;;;;;5069551;28;20396;-50
2021/06/17 09:33:44;;;;;;;9.30;4.75;;;39.50;40.50;;;;;;5069194;28;20434;-51
2021/06/17 09:36:10;;;;;;;8.97;4.87;;;40.60;40.20;;;;;;5069956;28;20407;-51
2021/06/17 09:38:45;;;;;;;7.17;4.63;;;42.20;38.30;;;;;;5067501;28;20722;-54
2021/06/17 09:41:11;;;;;;;10.50;4.70;;;41.80;38.80;;;;;;5069233;28;20887;-51
2021/06/17 09:43:43;;;;;;;10.50;5.22;;;41.80;37.30;;;;;;5067842;28;20445;-52
2021/06/17 09:46:11;;;;;;;11.20;5.60;;;41.80;37.90;;;;;;5069718;28;20372;-51
2021/06/17 09:48:45;;;;;;;9.82;5.18;;;42.50;37.10;;;;;;5068855;28;20391;-53
2021/06/17 09:51:30;;;;;;;10.10;5.75;;;43.00;37.10;;;;;;5069129;28;20395;-51
2021/06/17 09:54:17;;;;;;;9.90;5.20;;;41.60;38.10;;;;;;5068565;28;20407;-51
2021/06/17 09:57:04;;;;;;;8.32;5.32;;;41.10;39.50;;;;;;5068735;28;20419;-50
2021/06/17 09:59:37;;;;;;;9.90;5.53;;;40.90;40.00;;;;;;5069320;28;20411;-50
2021/06/17 10:02:08;;;;;;;10.10;5.50;;;41.20;39.50;;;;;;5029099;28;20917;-50
2021/06/17 10:04:34;;;;;;;8.98;5.32;;;42.10;38.50;;;;;;5027629;28;20450;-53
2021/06/17 10:07:00;;;;;;;8.00;5.57;;;41.90;38.70;;;;;;5027940;28;20422;-49
2021/06/17 10:09:26;;;;;;;8.70;6.30;;;41.00;38.90;;;;;;5029111;28;20493;-51
2021/06/17 10:11:52;;;;;;;7.68;6.20;;;40.10;38.90;;;;;;5028537;28;20390;-50
2021/06/17 10:14:18;;;;;;;9.20;6.40;;;40.90;38.70;;;;;;5028984;28;20379;-50
2021/06/17 10:16:45;;;;;;;9.50;5.78;;;41.30;38.70;;;;;;5028455;28;20410;-51
2021/06/17 10:19:12;;;;;;;8.13;5.60;;;41.60;38.40;;;;;;5029409;28;20392;-51
2021/06/17 10:21:38;;;;;;;9.95;5.70;;;42.10;37.50;;;;;;5028367;28;20419;-50
2021/06/17 10:24:22;;;;;;;9.55;6.50;;;41.70;37.80;;;;;;5028765;28;20391;-49
2021/06/17 10:26:53;;;;;;;8.02;6.00;;;41.00;38.00;;;;;;5028309;28;20379;-50
2021/06/17 10:29:28;;;;;;;9.90;6.30;;;41.00;38.40;;;;;;5029084;28;20383;-50
2021/06/17 10:31:56;;;;;;;9.23;6.03;;;41.50;37.10;;;;;;5028084;28;20483;-49
2021/06/17 10:34:25;;;;;;;8.60;6.40;;;41.30;37.10;;;;;;5029019;28;20955;-49
2021/06/17 10:37:20;;;;;;;10.93;9.83;;;40.30;37.80;;;;;;5028279;28;20461;-49
2021/06/17 10:39:54;;;;;;;9.23;6.20;;;39.40;38.90;;;;;;5028337;28;20845;-50
2021/06/17 10:42:52;;;;;;;9.50;6.90;;;38.40;40.00;;;;;;5027677;28;20469;-50
2021/06/17 10:45:34;;;;;;;10.02;9.02;;;38.20;41.10;;;;;;5016393;28;20399;-50
2021/06/17 10:48:01;;;;;;;9.00;6.22;;;37.70;41.30;;;;;;5028473;28;20489;-51
2021/06/17 10:50:47;;;;;;;11.20;8.37;;;37.30;41.50;;;;;;5029079;28;20849;-51
2021/06/17 10:53:46;;;;;;;10.48;8.93;;;37.00;41.30;;;;;;5029131;28;20410;-51
2021/06/17 10:56:22;;;;;;;11.80;10.60;;;36.90;41.20;;;;;;5042588;28;20396;-51
2021/06/17 10:58:49;;;;;;;9.10;7.72;;;37.10;41.40;;;;;;5055325;28;20401;-51
2021/06/17 11:01:25;;;;;;;11.10;6.70;;;37.10;42.10;;;;;;5052203;28;20967;-51
2021/06/17 11:04:13;;;;;;;9.97;6.70;;;36.50;43.00;;;;;;5059299;28;20427;-51
2021/06/17 11:06:48;;;;;;;11.70;10.60;;;36.40;43.20;;;;;;5061156;28;20420;-51
2021/06/17 11:09:44;;;;;;;7.80;5.63;;;36.60;42.00;;;;;;5052361;28;20405;-50
2021/06/17 11:12:13;;;;;;;9.20;6.20;;;36.70;40.40;;;;;;5053699;28;20885;-51
2021/06/17 11:14:42;;;;;;;7.47;5.35;;;36.90;40.80;;;;;;5051651;28;20761;-51
2021/06/17 11:17:29;;;;;;;8.03;5.30;;;36.90;40.50;;;;;;5054660;28;20483;-51
2021/06/17 11:20:06;;;;;;;9.00;5.90;;;37.10;40.70;;;;;;5052426;28;20996;-50
2021/06/17 11:22:39;;;;;;;10.25;7.18;;;37.00;40.90;;;;;;5041176;28;20490;-51
2021/06/17 11:25:15;;;;;;;10.43;9.32;;;37.20;41.00;;;;;;5058119;28;20392;-51
2021/06/17 11:27:58;;;;;;;11.43;10.35;;;37.50;41.40;;;;;;5071718;28;20391;-51
2021/06/17 11:30:42;;;;;;;9.80;8.80;;;37.30;39.80;;;;;;5071907;28;20418;-51
2021/06/17 11:35:53;;;;;;;9.52;8.23;;;37.30;39.90;;;;;;5071161;28;20746;-51
2021/06/17 11:38:23;;;;;;;9.90;7.95;;;37.30;39.20;;;;;;5071834;28;20375;-50
2021/06/17 11:40:50;;;;;;;10.00;7.80;;;37.20;39.50;;;;;;5060407;28;20438;-50
2021/06/17 11:43:21;;;;;;;10.55;8.35;;;37.10;40.40;;;;;;5052458;28;20382;-51
2021/06/17 11:45:47;;;;;;;11.03;7.90;;;37.10;40.90;;;;;;5050578;28;20370;-51
2021/06/17 11:48:13;;;;;;;11.27;7.67;;;37.20;40.70;;;;;;5051581;28;20462;-50
2021/06/17 11:50:46;;;;;;;9.63;5.80;;;36.90;40.40;;;;;;5051290;28;20377;-54
2021/06/17 11:53:20;;;;;;;8.65;6.32;;;36.40;41.00;;;;;;5043016;28;20489;-51
2021/06/17 11:55:54;;;;;;;7.80;5.78;;;36.30;43.40;;;;;;5051907;28;20378;-50
2021/06/17 11:58:25;;;;;;;8.07;5.10;;;36.60;43.70;;;;;;5066819;28;20420;-51
2021/06/17 12:00:51;;;;;;;7.77;5.33;;;36.70;42.60;;;;;;5064999;28;20413;-52
2021/06/17 12:03:24;;;;;;;8.95;5.70;;;36.90;42.20;;;;;;5051498;28;20401;-50
2021/06/17 12:05:52;;;;;;;8.30;5.63;;;36.70;41.40;;;;;;5050354;28;20414;-51
2021/06/17 12:08:27;;;;;;;8.60;5.47;;;36.50;40.20;;;;;;5051137;28;20421;-51
2021/06/17 12:10:58;;;;;;;12.25;6.30;;;36.20;40.50;;;;;;5049404;28;20449;-50
2021/06/17 12:13:23;;;;;;;8.45;5.72;;;36.20;41.60;;;;;;5048889;28;20406;-51
2021/06/17 12:15:57;;;;;;;8.30;5.63;;;36.00;41.50;;;;;;5048392;28;20507;-51
2021/06/17 12:18:23;;;;;;;9.43;5.90;;;36.00;41.00;;;;;;5051177;28;20468;-52
2021/06/17 12:20:49;;;;;;;8.17;5.60;;;36.20;41.30;;;;;;5050929;28;20613;-52
2021/06/17 12:23:23;;;;;;;11.32;6.20;;;36.20;41.30;;;;;;5051385;28;20392;-51
2021/06/17 12:26:05;;;;;;;9.20;6.68;;;36.30;41.50;;;;;;5049712;28;20397;-52
2021/06/17 12:28:47;;;;;;;9.90;7.10;;;36.40;43.60;;;;;;5050641;28;20393;-52
2021/06/17 12:31:23;;;;;;;10.00;7.10;;;36.40;43.20;;;;;;5050850;28;20394;-53
2021/06/17 12:33:49;;;;;;;8.85;6.63;;;36.40;43.30;;;;;;5049313;28;20934;-51
2021/06/17 12:36:17;;;;;;;8.70;6.30;;;36.40;43.70;;;;;;5049855;28;20433;-51
2021/06/17 12:38:43;;;;;;;8.40;6.40;;;36.60;44.10;;;;;;5050463;28;20377;-51
2021/06/17 12:41:12;;;;;;;8.10;5.93;;;36.60;44.50;;;;;;5049490;28;20390;-51
2021/06/17 12:43:46;;;;;;;9.10;7.30;;;36.70;44.10;;;;;;5049467;28;20428;-54
2021/06/17 12:46:13;;;;;;;9.00;7.10;;;36.70;44.00;;;;;;5049610;28;20386;-51
2021/06/17 12:54:35;;;;;;;11.48;9.77;;;35.50;43.90;;;;;;5053309;28;20400;-51
2021/06/17 12:57:03;;;;;;;11.15;10.05;;;35.60;43.90;;;;;;5054561;28;20411;-50
2021/06/17 12:59:40;;;;;;;12.75;11.65;;;35.80;44.30;;;;;;5060730;28;20396;-50